createdAt,value
2023-03-10T00:01:19.685Z,9.61
2023-03-10T00:06:14.131Z,10.15
2023-03-10T00:11:07.373Z,9.84
2023-03-10T00:15:59.364Z,9.88
2023-03-10T00:20:56.380Z,9.82
2023-03-10T00:25:56.636Z,10.26
2023-03-10T00:31:11.553Z,9.26
2023-03-10T00:36:10.033Z,9.45
2023-03-10T00:41:04.391Z,10.38
2023-03-10T00:45:56.228Z,9.83
2023-03-10T00:50:48.609Z,10.41
2023-03-10T00:55:40.308Z,10.40
2023-03-10T01:00:32.816Z,9.39
2023-03-10T01:05:24.555Z,9.58
2023-03-10T01:10:19.248Z,9.79
2023-03-10T01:15:12.103Z,10.19
2023-03-10T01:20:10.696Z,9.75
2023-03-10T01:25:03.160Z,9.47
2023-03-10T01:29:56.639Z,9.43
2023-03-10T01:34:49.148Z,10.21
2023-03-10T01:39:40.974Z,10.09
2023-03-10T01:44:32.702Z,9.61
2023-03-10T01:49:41.597Z,10.37
2023-03-10T01:54:59.633Z,10.44
2023-03-10T01:59:54.452Z,9.70
2023-03-10T02:04:49.126Z,9.88
2023-03-10T02:09:48.114Z,10.00
2023-03-10T02:14:40.382Z,10.22
2023-03-10T02:19:45.621Z,10.01
2023-03-10T02:25:16.526Z,10.34
2023-03-10T02:30:13.075Z,10.35
2023-03-10T02:35:08.615Z,9.85
2023-03-10T02:40:29.722Z,10.29
2023-03-10T02:45:22.514Z,9.92
2023-03-10T02:50:17.942Z,9.89
2023-03-10T02:55:15.578Z,8.61
2023-03-10T03:00:09.656Z,9.31
2023-03-10T03:05:02.209Z,8.99
2023-03-10T03:09:57.103Z,9.37
2023-03-10T03:14:48.984Z,8.21
2023-03-10T03:19:41.634Z,9.07
2023-03-10T03:24:33.406Z,9.20
2023-03-10T03:29:27.300Z,9.17
2023-03-10T03:34:20.831Z,9.63
2023-03-10T03:39:17.530Z,9.64
2023-03-10T03:44:12.665Z,7.95
2023-03-10T03:49:06.250Z,8.98
2023-03-10T03:53:58.386Z,8.56
2023-03-10T03:58:50.322Z,9.44
2023-03-10T04:03:43.988Z,9.40
2023-03-10T04:08:40.674Z,9.36
2023-03-10T04:13:32.672Z,7.95
2023-03-10T04:18:28.009Z,9.05
2023-03-10T04:23:20.766Z,8.81
2023-03-10T04:28:13.659Z,8.83
2023-03-10T04:33:05.478Z,8.75
2023-03-10T04:37:59.506Z,8.17
2023-03-10T04:42:52.790Z,8.67
2023-03-10T04:47:45.724Z,8.34
2023-03-10T04:52:37.441Z,8.65
2023-03-10T04:57:30.285Z,7.99
2023-03-10T05:02:22.118Z,8.18
2023-03-10T05:07:15.780Z,7.77
2023-03-10T05:12:12.833Z,8.91
2023-03-10T05:17:05.504Z,9.09
2023-03-10T05:21:57.561Z,8.52
2023-03-10T05:26:52.612Z,8.71
2023-03-10T05:31:44.540Z,8.19
2023-03-10T05:36:43.058Z,9.20
2023-03-10T05:41:35.967Z,9.04
2023-03-10T05:46:29.724Z,9.22
2023-03-10T05:51:23.919Z,9.26
2023-03-10T05:56:18.742Z,8.92
2023-03-10T06:01:14.336Z,8.57
2023-03-10T06:06:07.908Z,9.07
2023-03-10T06:10:59.586Z,9.22
2023-03-10T06:15:59.182Z,9.11
2023-03-10T06:20:52.367Z,8.42
2023-03-10T06:25:45.581Z,9.27
2023-03-10T06:30:37.376Z,9.02
2023-03-10T06:35:31.918Z,8.97
2023-03-10T06:40:24.299Z,8.69
2023-03-10T06:45:19.568Z,8.93
2023-03-10T06:50:12.920Z,9.38
2023-03-10T06:55:06.750Z,9.05
2023-03-10T06:59:58.382Z,9.25
2023-03-10T07:04:50.212Z,9.91
2023-03-10T07:09:42.040Z,9.42
2023-03-10T07:14:35.735Z,9.70
2023-03-10T07:19:27.390Z,9.72
2023-03-10T07:24:19.799Z,9.70
2023-03-10T07:29:11.710Z,9.68
2023-03-10T07:34:04.284Z,7.71
2023-03-10T07:38:56.484Z,9.23
2023-03-10T07:43:53.417Z,9.99
2023-03-10T07:48:45.176Z,8.73
2023-03-10T07:53:37.199Z,9.41
2023-03-10T07:58:29.018Z,8.94
2023-03-10T08:03:20.736Z,9.61
2023-03-10T08:08:12.464Z,10.82
2023-03-10T08:13:06.168Z,13.30
2023-03-10T08:17:57.911Z,15.75
2023-03-10T08:22:49.580Z,14.92
2023-03-10T08:27:41.620Z,14.04
2023-03-10T08:32:34.457Z,16.37
2023-03-10T08:37:26.272Z,19.40
2023-03-10T08:42:18.010Z,20.20
2023-03-10T08:47:09.790Z,19.12
2023-03-10T08:52:01.937Z,17.82
2023-03-10T08:56:53.862Z,15.88
2023-03-10T09:01:46.567Z,15.69
2023-03-10T09:06:38.801Z,15.08
2023-03-10T09:11:32.571Z,15.81
2023-03-10T09:16:25.323Z,15.18
2023-03-10T09:21:20.573Z,16.27
2023-03-10T09:26:12.684Z,16.29
2023-03-10T09:31:05.921Z,14.81
2023-03-10T09:36:06.419Z,16.78
2023-03-10T09:41:21.534Z,16.68
2023-03-10T09:46:51.746Z,16.45
2023-03-10T09:51:49.053Z,15.82
2023-03-10T09:56:41.272Z,15.61
2023-03-10T10:01:34.812Z,16.00
2023-03-10T10:06:32.761Z,15.82
2023-03-10T10:11:24.489Z,14.79
2023-03-10T10:16:34.813Z,15.23
2023-03-10T10:21:42.568Z,15.22
2023-03-10T10:26:34.632Z,14.87
2023-03-10T10:31:28.871Z,15.13
2023-03-10T10:36:24.515Z,14.66
2023-03-10T10:41:23.772Z,15.15
2023-03-10T10:46:23.398Z,13.54
2023-03-10T10:51:30.298Z,13.21
2023-03-10T10:56:24.194Z,13.76
2023-03-10T11:01:17.096Z,13.57
2023-03-10T11:06:32.223Z,11.70
2023-03-10T11:11:34.475Z,13.86
2023-03-10T11:16:39.789Z,12.76
2023-03-10T11:21:36.571Z,12.17
2023-03-10T11:26:44.198Z,13.30
2023-03-10T11:31:45.020Z,11.89
2023-03-10T11:36:57.571Z,10.59
2023-03-10T11:41:56.526Z,11.41
2023-03-10T11:46:50.929Z,11.70
2023-03-10T11:51:47.123Z,11.34
2023-03-10T11:56:40.594Z,10.94
2023-03-10T12:01:51.788Z,11.37
2023-03-10T12:07:01.367Z,10.55
2023-03-10T12:11:54.351Z,11.29
2023-03-10T12:16:47.963Z,12.19
2023-03-10T12:21:39.663Z,11.40
2023-03-10T12:26:59.616Z,11.91
2023-03-10T12:31:55.290Z,11.65
2023-03-10T12:36:51.955Z,11.98
2023-03-10T12:41:52.263Z,12.14
2023-03-10T12:46:54.817Z,12.09
2023-03-10T12:51:51.610Z,11.21
2023-03-10T12:56:52.797Z,10.73
2023-03-10T13:01:55.471Z,12.18
2023-03-10T13:06:49.799Z,10.34
2023-03-10T13:11:45.240Z,10.13
2023-03-10T13:16:36.928Z,10.98
2023-03-10T13:21:34.761Z,10.56
2023-03-10T13:26:27.840Z,9.71
2023-03-10T13:31:49.744Z,11.41
2023-03-10T13:36:42.533Z,9.86
2023-03-10T13:41:37.386Z,11.53
2023-03-10T13:46:32.118Z,11.39
2023-03-10T13:51:31.913Z,10.63
2023-03-10T13:56:38.985Z,8.83
2023-03-10T14:01:34.771Z,9.93
2023-03-10T14:06:28.825Z,9.66
2023-03-10T14:11:32.823Z,9.30
2023-03-10T14:16:47.530Z,9.99
2023-03-10T14:21:52.440Z,9.79
2023-03-10T14:26:50.505Z,9.58
2023-03-10T14:31:43.637Z,9.93
2023-03-10T14:36:35.848Z,9.88
2023-03-10T14:41:27.882Z,9.77
2023-03-10T14:46:19.812Z,9.61
2023-03-10T14:51:19.984Z,9.20
2023-03-10T14:56:21.591Z,9.70
2023-03-10T15:01:14.032Z,10.00
2023-03-10T15:06:06.816Z,9.89
2023-03-10T15:10:59.276Z,8.96
2023-03-10T15:15:51.698Z,8.83
2023-03-10T15:20:43.484Z,8.52
2023-03-10T15:25:35.254Z,8.38
2023-03-10T15:30:32.930Z,8.92
2023-03-10T15:35:25.266Z,8.88
2023-03-10T15:40:19.710Z,6.78
2023-03-10T15:45:12.291Z,8.30
2023-03-10T15:50:05.436Z,8.58
2023-03-10T15:54:59.405Z,8.43
2023-03-10T15:59:51.254Z,8.53
2023-03-10T16:04:46.485Z,8.44
2023-03-10T16:09:39.176Z,8.61
2023-03-10T16:14:31.064Z,7.89
2023-03-10T16:19:23.327Z,8.18
2023-03-10T16:24:15.864Z,7.99
2023-03-10T16:29:08.896Z,4.77
2023-03-10T16:34:00.642Z,7.51
2023-03-10T16:38:53.780Z,7.46
2023-03-10T16:43:47.850Z,3.46
2023-03-10T16:48:45.719Z,5.77
2023-03-10T16:53:37.628Z,2.16
2023-03-10T16:58:29.336Z,4.31
2023-03-10T17:03:21.860Z,3.73
2023-03-10T17:08:13.583Z,2.64
2023-03-10T17:13:05.268Z,2.73
2023-03-10T17:17:56.914Z,2.86
2023-03-10T17:22:48.784Z,1.94
2023-03-10T17:27:44.454Z,2.57
2023-03-10T17:32:37.904Z,1.98
2023-03-10T17:37:30.675Z,1.48
2023-03-10T17:42:23.877Z,1.87
2023-03-10T17:47:15.592Z,1.22
2023-03-10T17:52:07.897Z,1.73
2023-03-10T17:56:59.597Z,1.79
2023-03-10T18:01:51.948Z,0.48
2023-03-10T18:06:44.309Z,0.00
2023-03-10T18:11:36.885Z,1.84
2023-03-10T18:16:32.302Z,1.69
2023-03-10T18:21:25.342Z,0.84
2023-03-10T18:26:20.291Z,1.40
2023-03-10T18:31:21.401Z,0.39
2023-03-10T18:36:14.732Z,1.53
2023-03-10T18:41:07.367Z,1.89
2023-03-10T18:45:59.314Z,1.13
2023-03-10T18:50:52.395Z,1.44
2023-03-10T18:55:44.029Z,1.62
2023-03-10T19:00:37.665Z,1.75
2023-03-10T19:05:29.326Z,1.86
2023-03-10T19:10:22.641Z,1.66
2023-03-10T19:15:16.117Z,1.67
2023-03-10T19:20:12.917Z,0.51
2023-03-10T19:25:07.127Z,2.06
2023-03-10T19:29:59.088Z,1.45
2023-03-10T19:34:51.114Z,1.44
2023-03-10T19:39:44.673Z,1.55
2023-03-10T19:44:40.166Z,1.12
2023-03-10T19:49:35.398Z,1.89
2023-03-10T19:54:27.401Z,1.53
2023-03-10T19:59:19.855Z,1.40
2023-03-10T20:04:11.787Z,2.05
2023-03-10T20:09:09.047Z,1.38
2023-03-10T20:14:00.738Z,-0.55
2023-03-10T20:18:53.327Z,1.75
2023-03-10T20:23:47.643Z,1.80
2023-03-10T20:28:42.019Z,0.88
2023-03-10T20:33:35.290Z,1.53
2023-03-10T20:38:27.947Z,1.94
2023-03-10T20:43:21.351Z,1.12
2023-03-10T20:48:13.121Z,1.65
2023-03-10T20:53:05.333Z,1.46
2023-03-10T20:58:00.926Z,1.29
2023-03-10T21:02:56.985Z,1.52
2023-03-10T21:07:50.583Z,0.93
2023-03-10T21:12:43.155Z,0.69
2023-03-10T21:17:34.890Z,2.02
2023-03-10T21:22:30.319Z,1.57
2023-03-10T21:27:22.936Z,2.00
2023-03-10T21:32:14.653Z,0.48
2023-03-10T21:37:08.591Z,1.92
2023-03-10T21:42:00.373Z,1.78
2023-03-10T21:46:52.939Z,1.87
2023-03-10T21:51:44.938Z,1.76
2023-03-10T21:56:37.405Z,1.55
2023-03-10T22:01:29.224Z,1.97
2023-03-10T22:06:21.026Z,-0.63
2023-03-10T22:11:13.437Z,1.98
2023-03-10T22:16:10.565Z,1.98
2023-03-10T22:21:02.269Z,1.77
2023-03-10T22:25:53.907Z,1.70
2023-03-10T22:30:45.886Z,1.74
2023-03-10T22:35:40.497Z,1.66
2023-03-10T22:40:32.374Z,1.84
2023-03-10T22:45:26.929Z,1.46
2023-03-10T22:50:23.480Z,1.97
2023-03-10T22:55:18.079Z,1.30
2023-03-10T23:00:15.045Z,2.13
2023-03-10T23:05:08.129Z,2.05
2023-03-10T23:10:00.179Z,1.96
2023-03-10T23:14:52.899Z,1.91
2023-03-10T23:19:44.626Z,1.97
2023-03-10T23:24:37.089Z,2.26
2023-03-10T23:29:28.807Z,1.54
2023-03-10T23:34:20.537Z,2.33
2023-03-10T23:39:13.531Z,1.99
2023-03-10T23:44:06.747Z,2.22
2023-03-10T23:48:58.442Z,2.05
2023-03-10T23:53:52.492Z,1.66
2023-03-10T23:58:44.189Z,1.09
